MUVR

Details ICAO MUVR (VRA)
Name JUAN GUALBERTO GOMEZ INTL
Region Cuba
Timezone America/Havana (UTC-5.0)
Plans Departing 67
Arriving 130
Stats Elevation 209 ft / 64 m (AMSL)
Location 23.034439° -81.435269°
Runways 1
Magnetic Variation 5.517° W
Sunrise 2017-12-13 11:59:25 UTC / 2017-12-13 06:59:25 Local
Sunset 2017-12-13 22:43:31 UTC / 2017-12-13 17:43:31 Local
Advertisement - Login to hide

Runways

ID Width Length Bearing (true) Bearing (mag) Surface Threshold Offset Overrun Length
06 148 ft / 45 m 11,494 ft / 3,503 m 55.47° 60.99° Asphalt 0 ft / 0 m 197 ft / 60 m
24 148 ft / 45 m 11,494 ft / 3,503 m 235.48° 241.00° Asphalt 0 ft / 0 m 197 ft / 60 m

Approach Navaids

Runway Type Ident Frequency Range Bearing (true) Bearing (mag) Slope Elevation
06 Localiser IVR 111.30 MHz 18 nm / 33 km 55.49° 61.01° - 209 ft / 64 m (AMSL)
06 Glidescope IVR 111.30 MHz 10 nm / 19 km 55.47° 60.99° 3.00° 209 ft / 64 m (AMSL)

Map

Weather


0- 5 10 15 20 25 30 35+ Temperature / ° C

Clouds and Precipitation
Forecast for 2017-12-13 18:00 UTC. Updated an hour ago

Ground ~20,000 ft ~40,000 ft Winds

METAR

MUVR 131751Z 02010KT 9000 BKN018 21/15 Q1018

TAF

Not found

Frequencies

Tower 126.90 MHz VARADERO RDO
Approach 119.60 MHz VARADERO APP
Tower 118.40 MHz VARADERO TWR
Warning: Do not use this data for real-world aviation or navigation. No guarantee of current accuracy is given.